createdAt,value
2023-01-09T08:25:19.217Z,-3.20
2023-01-09T08:27:21.221Z,-3.20
2023-01-09T08:29:23.077Z,-3.30
2023-01-09T08:31:24.878Z,-3.30
2023-01-09T08:33:27.353Z,-3.30
2023-01-09T08:35:29.317Z,-3.30
2023-01-09T08:37:31.076Z,-3.20
2023-01-09T08:39:33.430Z,-3.10
2023-01-09T08:41:53.743Z,-3.10
2023-01-09T08:44:14.203Z,-3.20
2023-01-09T08:46:40.538Z,-3.30
2023-01-09T08:48:43.647Z,-3.40
2023-01-09T08:50:46.689Z,-3.40
2023-01-09T08:52:48.710Z,-3.30
2023-01-09T08:54:50.582Z,-3.10
2023-01-09T08:56:54.861Z,-3.10
2023-01-09T08:58:56.728Z,-3.20
2023-01-09T09:00:59.115Z,-3.30
2023-01-09T09:03:01.531Z,-3.30
2023-01-09T09:05:03.712Z,-3.20
2023-01-09T09:07:05.685Z,-3.00
2023-01-09T09:09:07.590Z,-3.00
2023-01-09T09:11:09.395Z,-2.70
2023-01-09T09:13:11.248Z,-2.70
2023-01-09T09:15:13.091Z,-2.90
2023-01-09T09:17:14.992Z,-2.90
2023-01-09T09:19:16.870Z,-2.80
2023-01-09T09:21:18.590Z,-2.80
2023-01-09T09:23:20.625Z,-2.70
2023-01-09T09:25:23.164Z,-2.80
2023-01-09T09:27:25.085Z,-2.70
2023-01-09T09:29:26.912Z,-2.80
2023-01-09T09:31:28.838Z,-2.80
2023-01-09T09:33:30.667Z,-2.70
2023-01-09T09:35:34.174Z,-2.80
2023-01-09T09:37:36.431Z,-2.80
2023-01-09T09:39:38.429Z,-2.60
2023-01-09T09:42:31.657Z,-2.50
2023-01-09T09:45:05.179Z,-2.50
2023-01-09T09:47:30.826Z,-2.50
2023-01-09T09:49:55.842Z,-2.50
2023-01-09T09:52:23.911Z,-2.50
2023-01-09T09:54:35.448Z,-2.50
2023-01-09T09:57:01.584Z,-2.40
2023-01-09T09:59:15.923Z,-2.50
2023-01-09T10:01:43.113Z,-2.50
2023-01-09T10:03:50.371Z,-2.50
2023-01-09T10:05:54.981Z,-2.20
2023-01-09T10:08:14.879Z,-2.30
2023-01-09T10:10:29.980Z,-2.40
2023-01-09T10:12:37.889Z,-2.30
2023-01-09T12:16:04.218Z,-1.90
2023-01-09T12:18:26.163Z,-1.70
2023-01-09T12:20:58.165Z,-1.70
2023-01-09T12:23:13.346Z,-1.70
2023-01-09T12:25:29.308Z,-1.60
2023-01-09T12:27:49.925Z,-1.50
2023-01-09T12:29:57.710Z,-1.30
2023-01-09T12:32:18.054Z,-1.50
2023-01-09T12:34:57.134Z,-1.60
2023-01-09T12:37:29.955Z,-1.60
2023-01-09T12:40:08.979Z,-1.60
2023-01-09T12:42:33.445Z,-1.40
2023-01-09T12:44:41.118Z,-1.50
2023-01-09T12:47:01.546Z,-1.50
2023-01-09T12:49:15.677Z,-1.50
2023-01-09T12:51:40.880Z,-1.40
2023-01-09T12:54:05.315Z,-1.40
2023-01-09T12:56:38.687Z,-1.40
2023-01-09T12:58:51.204Z,-1.20
2023-01-09T13:00:54.799Z,-1.30
2023-01-09T13:03:33.590Z,-1.30
2023-01-09T13:05:45.529Z,-1.40
2023-01-09T13:07:56.853Z,-1.40
2023-01-09T13:10:08.126Z,-1.40
2023-01-09T13:12:22.295Z,-1.30
2023-01-09T13:14:39.516Z,-1.30
2023-01-09T13:16:46.360Z,-1.20
2023-01-09T13:18:58.077Z,-1.10
2023-01-09T13:21:01.250Z,-1.20
2023-01-09T13:23:05.237Z,-1.20
2023-01-09T13:25:44.640Z,-1.30
2023-01-09T13:28:13.201Z,-1.30
2023-01-09T13:30:40.812Z,-1.30
2023-01-09T13:32:55.599Z,-1.20
2023-01-09T13:34:58.160Z,-1.00
2023-01-09T13:37:01.362Z,-1.20
2023-01-09T13:39:03.755Z,-1.20
2023-01-09T13:41:29.019Z,-1.20
2023-01-09T13:44:14.121Z,-1.30
2023-01-09T13:46:17.147Z,-1.30
2023-01-09T13:48:27.756Z,-1.20
2023-01-09T13:50:34.907Z,-1.10
2023-01-09T13:52:43.089Z,-1.20
2023-01-09T13:54:58.272Z,-1.30
2023-01-09T13:57:17.141Z,-1.30
2023-01-09T13:59:28.972Z,-1.30
2023-01-09T14:01:39.956Z,-1.40
2023-01-09T16:15:18.122Z,-1.10
2023-01-09T16:17:24.016Z,-1.00
2023-01-09T16:19:41.405Z,-0.90
2023-01-09T16:21:43.531Z,-1.00
2023-01-09T16:24:14.262Z,-1.00
2023-01-09T16:26:21.497Z,-1.10
2023-01-09T16:28:30.732Z,-1.10
2023-01-09T16:30:32.729Z,-1.00
2023-01-09T16:32:35.650Z,-1.00
2023-01-09T16:34:44.225Z,-1.10
2023-01-09T16:36:46.152Z,-1.10
2023-01-09T16:38:47.902Z,-1.10
2023-01-09T16:41:17.085Z,-1.10
2023-01-09T16:43:19.022Z,-1.10
2023-01-09T16:45:21.012Z,-1.20
2023-01-09T16:47:22.935Z,-1.20
2023-01-09T16:49:28.311Z,-1.10
2023-01-09T16:51:30.209Z,-1.20
2023-01-09T16:53:32.139Z,-1.20
2023-01-09T16:55:34.031Z,-1.30
2023-01-09T16:57:36.284Z,-1.30
2023-01-09T16:59:38.631Z,-1.40
2023-01-09T17:01:41.717Z,-1.40
2023-01-09T17:03:44.349Z,-1.30
2023-01-09T17:05:58.391Z,-1.00
2023-01-09T17:08:00.258Z,-1.20
2023-01-09T17:10:02.335Z,-1.20
2023-01-09T17:12:04.287Z,-1.30
2023-01-09T17:14:07.667Z,-1.40
2023-01-09T17:16:11.342Z,-1.40
2023-01-09T17:35:45.212Z,-1.50
2023-01-09T17:37:47.348Z,-1.50
2023-01-09T17:39:49.265Z,-1.60
2023-01-09T17:41:51.201Z,-1.60
2023-01-09T17:43:53.121Z,-1.60
2023-01-09T17:45:56.595Z,-1.60
2023-01-09T17:47:58.536Z,-1.50
2023-01-09T17:50:00.406Z,-1.60
2023-01-09T17:52:02.328Z,-1.60
2023-01-09T17:54:04.281Z,-1.70
2023-01-09T17:56:06.491Z,-1.70
2023-01-09T17:58:29.054Z,-1.70
2023-01-09T18:00:36.792Z,-1.80
2023-01-09T20:15:19.735Z,-3.20
2023-01-09T20:17:21.590Z,-3.30
2023-01-09T20:19:23.565Z,-3.40
2023-01-09T20:21:26.519Z,-3.50
2023-01-09T20:23:29.038Z,-3.40
2023-01-09T20:25:30.919Z,-3.40
2023-01-09T20:27:32.696Z,-3.50
2023-01-09T20:29:34.664Z,-3.30
2023-01-09T20:31:36.941Z,-3.40
2023-01-09T20:33:39.108Z,-3.50
2023-01-09T20:35:41.606Z,-3.50
2023-01-09T20:37:43.667Z,-3.50
2023-01-09T20:39:45.757Z,-3.60
2023-01-09T20:41:47.809Z,-3.60
2023-01-09T20:43:55.738Z,-3.40
2023-01-09T20:46:03.169Z,-3.30
2023-01-09T20:48:05.377Z,-3.30
2023-01-09T20:50:08.071Z,-3.50
2023-01-09T20:52:10.029Z,-3.60
2023-01-09T20:54:11.816Z,-3.50
2023-01-09T20:56:14.224Z,-3.70
2023-01-09T20:58:16.202Z,-3.70
2023-01-09T21:00:18.056Z,-3.70
2023-01-09T21:02:22.074Z,-3.70
2023-01-09T21:04:24.095Z,-3.70
2023-01-09T21:06:27.585Z,-3.80
2023-01-09T21:08:29.561Z,-3.70
2023-01-09T21:10:31.346Z,-3.80
2023-01-09T21:12:36.376Z,-3.80
2023-01-09T21:14:38.987Z,-3.80
2023-01-09T21:16:40.999Z,-3.80
2023-01-09T21:18:44.360Z,-3.70
2023-01-09T21:20:46.326Z,-3.60
2023-01-09T21:22:49.348Z,-3.70
2023-01-09T21:24:51.976Z,-3.80
2023-01-09T21:26:53.889Z,-3.80
2023-01-09T21:28:57.371Z,-3.80
2023-01-09T21:30:59.298Z,-3.80
2023-01-09T21:33:01.060Z,-3.70
2023-01-09T21:35:05.825Z,-3.60
2023-01-09T21:37:07.735Z,-3.60
2023-01-09T21:39:09.492Z,-3.60
2023-01-09T21:41:30.323Z,-3.70
2023-01-09T21:43:50.607Z,-3.70
2023-01-09T21:46:11.227Z,-3.70
2023-01-09T21:48:13.291Z,-3.50
2023-01-09T21:50:17.425Z,-3.40
2023-01-09T21:52:19.461Z,-3.50
2023-01-09T21:54:23.187Z,-3.20
2023-01-09T21:56:25.082Z,-3.40
2023-01-09T21:58:26.849Z,-3.40
2023-01-09T22:00:29.534Z,-3.40
2023-01-09T22:02:31.420Z,-3.30
2023-01-09T22:04:33.566Z,-3.40
2023-01-09T22:06:36.035Z,-3.40
2023-01-09T22:08:37.993Z,-3.40
2023-01-09T22:10:39.764Z,-3.20
2023-01-09T22:13:01.640Z,-3.30
2023-01-09T22:15:04.100Z,-3.30
2023-01-09T22:17:05.961Z,-3.30
2023-01-09T22:19:07.786Z,-3.30
2023-01-09T22:21:09.901Z,-3.30
2023-01-09T22:23:12.148Z,-3.40
2023-01-09T22:25:14.124Z,-3.30
2023-01-09T22:27:16.330Z,-3.20
2023-01-09T22:29:18.258Z,-3.30
2023-01-09T22:31:20.989Z,-3.30
2023-01-09T22:33:25.138Z,-3.30
2023-01-09T22:35:27.540Z,-3.40
2023-01-09T22:37:29.614Z,-3.30
2023-01-09T22:39:31.540Z,-3.50
2023-01-09T22:41:33.333Z,-3.40
2023-01-09T22:43:35.265Z,-3.50
2023-01-09T22:45:37.114Z,-3.60
2023-01-09T22:47:38.978Z,-3.60
2023-01-09T22:49:52.516Z,-3.50
2023-01-09T22:51:55.162Z,-3.60
2023-01-09T22:53:56.965Z,-3.60
2023-01-09T22:56:01.019Z,-3.70
2023-01-09T22:58:02.959Z,-3.70
2023-01-09T23:00:05.141Z,-3.70
2023-01-09T23:02:08.559Z,-3.70
2023-01-09T23:04:14.132Z,-3.80
2023-01-09T23:06:22.949Z,-3.70
2023-01-09T23:08:24.991Z,-3.80
2023-01-09T23:10:26.891Z,-3.90
2023-01-09T23:12:28.673Z,-3.90
2023-01-09T23:14:36.018Z,-3.90
2023-01-09T23:16:38.291Z,-3.90
2023-01-09T23:18:40.197Z,-3.90
2023-01-09T23:20:50.145Z,-4.10
2023-01-09T23:22:52.064Z,-4.10
2023-01-09T23:24:53.951Z,-4.10
2023-01-09T23:26:56.769Z,-4.10
2023-01-09T23:28:58.639Z,-4.20
2023-01-09T23:31:00.379Z,-4.10
2023-01-09T23:33:02.302Z,-4.20
2023-01-09T23:35:04.475Z,-4.20
2023-01-09T23:37:09.118Z,-4.30
2023-01-09T23:39:11.400Z,-4.30
2023-01-09T23:41:13.570Z,-4.50
2023-01-09T23:43:15.786Z,-4.50
2023-01-09T23:45:17.729Z,-4.60
2023-01-09T23:47:19.593Z,-4.70
2023-01-09T23:49:21.690Z,-4.90
2023-01-09T23:51:23.700Z,-4.90
2023-01-09T23:53:26.518Z,-5.00
2023-01-09T23:55:29.166Z,-5.00
2023-01-09T23:57:31.138Z,-5.10
2023-01-09T23:59:33.118Z,-4.90
